Wetterdaten: Woche 30.08.10 - 05.09.10 (KW35)
Datum Zeit Temp. A. Feuchte A. Luftdruck Regen Wind Richtung Taupunkt Windchill Windben
30.08.2010 00:00 12,1 C 75 % 1012,8 hPa 0,0 l/m 0,1 km/h N 7,9 C 12,1 C 2,0 km/h
30.08.2010 01:00 12,1 C 75 % 1011,9 hPa 0,0 l/m 0,0 km/h N 7,9 C 12,1 C 0,4 km/h
30.08.2010 02:00 11,8 C 77 % 1011,1 hPa 0,0 l/m 0,0 km/h N 7,9 C 11,8 C 0,4 km/h
30.08.2010 03:00 12,1 C 80 % 1010,6 hPa 0,0 l/m 0,0 km/h N 8,7 C 12,1 C 0,4 km/h
30.08.2010 04:00 12,3 C 83 % 1010,4 hPa 0,3 l/m 0,0 km/h N 9,4 C 12,3 C 1,2 km/h
30.08.2010 05:00 12,1 C 85 % 1010,4 hPa 0,5 l/m 0,3 km/h S-SW 9,6 C 12,1 C 2,4 km/h
30.08.2010 06:00 12,0 C 85 % 1010,5 hPa 0,3 l/m 2,5 km/h S-SW 9,5 C 12,0 C 11,7 km/h
30.08.2010 07:00 12,0 C 86 % 1010,5 hPa 2,6 l/m 0,7 km/h SW 9,7 C 12,0 C 5,2 km/h
30.08.2010 08:00 11,9 C 86 % 1010,2 hPa 0,8 l/m 1,8 km/h W-SW 9,7 C 11,9 C 10,4 km/h
30.08.2010 09:00 12,2 C 87 % 1010,5 hPa 2,1 l/m 0,0 km/h N 10,1 C 12,2 C 0,4 km/h
30.08.2010 10:00 12,3 C 87 % 1010,8 hPa 1,6 l/m 0,3 km/h N 10,2 C 12,3 C 3,6 km/h
30.08.2010 11:00 12,4 C 87 % 1010,9 hPa 1,0 l/m 0,8 km/h W-SW 10,3 C 12,4 C 6,4 km/h
30.08.2010 12:00 12,9 C 87 % 1010,9 hPa 0,3 l/m 0,5 km/h N 10,8 C 12,9 C 5,2 km/h
30.08.2010 13:00 13,3 C 86 % 1010,9 hPa 0,0 l/m 0,8 km/h N 10,9 C 13,3 C 4,8 km/h
30.08.2010 14:00 13,8 C 79 % 1010,4 hPa 0,0 l/m 1,1 km/h S 10,1 C 13,8 C 5,6 km/h
30.08.2010 15:00 14,2 C 71 % 1009,9 hPa 0,0 l/m 0,8 km/h SW 9,1 C 14,2 C 5,2 km/h
30.08.2010 16:00 14,2 C 67 % 1009,7 hPa 0,0 l/m 1,2 km/h W-SW 8,1 C 14,2 C 9,3 km/h
30.08.2010 17:00 13,9 C 68 % 1009,9 hPa 0,0 l/m 0,6 km/h S-SO 8,1 C 13,9 C 5,6 km/h
30.08.2010 18:00 13,2 C 68 % 1010,0 hPa 0,0 l/m 1,9 km/h S-SO 7,3 C 13,2 C 10,5 km/h
30.08.2010 19:00 12,7 C 69 % 1009,3 hPa 0,0 l/m 1,8 km/h NW 7,1 C 12,7 C 9,7 km/h
30.08.2010 20:00 12,4 C 68 % 1009,6 hPa 0,0 l/m 2,0 km/h S 6,6 C 12,4 C 12,5 km/h
30.08.2010 21:00 12,0 C 72 % 1010,0 hPa 0,0 l/m 0,8 km/h NW 7,0 C 12,0 C 7,6 km/h
30.08.2010 22:00 11,3 C 73 % 1009,8 hPa 0,0 l/m 2,9 km/h W-SW 6,6 C 11,3 C 16,1 km/h
30.08.2010 23:00 11,0 C 73 % 1009,8 hPa 0,0 l/m 3,4 km/h S 6,4 C 11,0 C 14,9 km/h
31.08.2010 00:00 10,5 C 74 % 1009,9 hPa 0,0 l/m 1,9 km/h O-NO 6,0 C 10,5 C 12,9 km/h
31.08.2010 01:00 10,4 C 74 % 1009,7 hPa 0,0 l/m 1,7 km/h W-SW 5,9 C 10,4 C 10,8 km/h
31.08.2010 02:00 10,2 C 75 % 1009,7 hPa 0,0 l/m 2,6 km/h NW 5,9 C 10,2 C 14,9 km/h
31.08.2010 03:00 10,3 C 77 % 1009,4 hPa 0,0 l/m 3,0 km/h W 6,3 C 10,3 C 12,9 km/h
31.08.2010 04:00 10,2 C 77 % 1009,4 hPa 0,0 l/m 3,2 km/h NW 6,4 C 10,2 C 12,9 km/h
31.08.2010 05:00 10,0 C 77 % 1009,3 hPa 0,0 l/m 2,3 km/h W 6,2 C 10,0 C 12,5 km/h
31.08.2010 06:00 9,9 C 78 % 1009,2 hPa 0,0 l/m 3,9 km/h W-SW 6,2 C 9,9 C 15,3 km/h
31.08.2010 07:00 10,3 C 80 % 1009,4 hPa 0,0 l/m 6,3 km/h NW 6,9 C 10,2 C 20,9 km/h
31.08.2010 08:00 9,9 C 83 % 1009,4 hPa 0,8 l/m 5,0 km/h NW 7,1 C 9,9 C 18,5 km/h
31.08.2010 09:00 9,8 C 86 % 1009,4 hPa 1,6 l/m 3,2 km/h NW 7,6 C 9,8 C 12,1 km/h
31.08.2010 10:00 10,6 C 87 % 1009,5 hPa 0,5 l/m 5,4 km/h O-SO 8,5 C 10,6 C 20,9 km/h
31.08.2010 11:00 11,0 C 87 % 1009,6 hPa 1,6 l/m 6,0 km/h W-NW 8,9 C 11,0 C 23,7 km/h
31.08.2010 12:00 11,0 C 87 % 1009,5 hPa 4,4 l/m 5,2 km/h NW 8,9 C 11,0 C 22,5 km/h
31.08.2010 13:00 11,3 C 87 % 1009,3 hPa 3,1 l/m 6,8 km/h N-NW 9,2 C 10,9 C 22,9 km/h
31.08.2010 14:00 11,6 C 88 % 1009,0 hPa 2,6 l/m 6,6 km/h NW 9,6 C 11,4 C 22,5 km/h
31.08.2010 15:00 12,0 C 88 % 1009,0 hPa 1,8 l/m 7,4 km/h N-NW 10,0 C 11,1 C 22,5 km/h
31.08.2010 16:00 12,2 C 87 % 1009,2 hPa 2,1 l/m 7,9 km/h NW 10,1 C 11,3 C 23,7 km/h
31.08.2010 17:00 12,3 C 87 % 1009,6 hPa 1,6 l/m 9,1 km/h N-NW 10,2 C 10,7 C 24,9 km/h
31.08.2010 18:00 12,2 C 88 % 1009,7 hPa 1,8 l/m 10,5 km/h N-NW 10,2 C 9,8 C 27,0 km/h
31.08.2010 19:00 12,1 C 88 % 1010,0 hPa 1,6 l/m 9,1 km/h N-NW 10,1 C 10,4 C 28,6 km/h
31.08.2010 20:00 12,1 C 88 % 1010,5 hPa 1,0 l/m 9,1 km/h N-NW 10,1 C 10,4 C 30,6 km/h
31.08.2010 21:00 12,4 C 86 % 1011,1 hPa 0,5 l/m 10,4 km/h NW 10,1 C 10,1 C 27,8 km/h
31.08.2010 22:00 12,8 C 82 % 1011,3 hPa 0,0 l/m 10,3 km/h NW 9,8 C 10,5 C 28,2 km/h
31.08.2010 23:00 13,2 C 78 % 1011,4 hPa 0,0 l/m 13,9 km/h W-NW 9,3 C 9,5 C 32,2 km/h
01.09.2010 00:00 13,4 C 75 % 1011,4 hPa 0,0 l/m 14,0 km/h N-NW 9,1 C 9,6 C 34,2 km/h
01.09.2010 01:00 13,4 C 74 % 1011,5 hPa 0,0 l/m 13,6 km/h NW 8,9 C 9,8 C 34,2 km/h
01.09.2010 02:00 13,3 C 73 % 1011,5 hPa 0,0 l/m 12,4 km/h NW 8,6 C 10,2 C 29,0 km/h
01.09.2010 03:00 13,2 C 71 % 1011,7 hPa 0,0 l/m 12,5 km/h NW 8,0 C 10,0 C 35,0 km/h
01.09.2010 04:00 13,0 C 71 % 1011,9 hPa 0,0 l/m 11,5 km/h N-NW 7,9 C 10,2 C 31,8 km/h
01.09.2010 05:00 12,4 C 71 % 1012,1 hPa 0,0 l/m 10,1 km/h N-NO 7,2 C 10,2 C 32,6 km/h
01.09.2010 06:00 12,3 C 70 % 1012,3 hPa 0,0 l/m 9,8 km/h NW 6,9 C 10,2 C 31,4 km/h
01.09.2010 07:00 12,2 C 70 % 1012,7 hPa 0,0 l/m 8,1 km/h NW 6,8 C 11,1 C 24,5 km/h
01.09.2010 08:00 12,3 C 71 % 1013,0 hPa 0,0 l/m 8,5 km/h W-NW 7,1 C 10,9 C 27,8 km/h
01.09.2010 09:00 13,1 C 70 % 1013,2 hPa 0,0 l/m 9,4 km/h NW 7,8 C 11,3 C 26,9 km/h
01.09.2010 10:00 14,0 C 68 % 1013,3 hPa 0,0 l/m 8,5 km/h NW 8,2 C 12,9 C 24,9 km/h
01.09.2010 11:00 15,0 C 61 % 1013,7 hPa 0,0 l/m 9,4 km/h N-NW 7,5 C 13,5 C 25,4 km/h
01.09.2010 12:00 16,4 C 57 % 1013,4 hPa 0,0 l/m 13,3 km/h NW 7,8 C 13,4 C 34,6 km/h
01.09.2010 13:00 17,6 C 52 % 1012,9 hPa 0,0 l/m 12,4 km/h NW 7,6 C 15,2 C 30,2 km/h
01.09.2010 14:00 18,3 C 51 % 1012,8 hPa 0,0 l/m 9,3 km/h N-NW 7,9 C 17,1 C 23,7 km/h
01.09.2010 15:00 18,2 C 52 % 1013,0 hPa 0,0 l/m 10,8 km/h N-NW 8,2 C 16,3 C 27,0 km/h
01.09.2010 16:00 17,3 C 55 % 1013,2 hPa 0,0 l/m 6,1 km/h S-SW 8,0 C 17,0 C 18,5 km/h
01.09.2010 17:00 17,1 C 57 % 1013,3 hPa 0,0 l/m 6,3 km/h W-SW 8,5 C 16,9 C 20,9 km/h
01.09.2010 18:00 15,9 C 61 % 1013,8 hPa 0,0 l/m 3,4 km/h NW 8,5 C 15,9 C 12,9 km/h
01.09.2010 19:00 15,1 C 64 % 1014,3 hPa 0,0 l/m 2,9 km/h NW 8,3 C 15,1 C 12,1 km/h
01.09.2010 20:00 14,7 C 69 % 1014,7 hPa 0,0 l/m 3,0 km/h S-SW 9,0 C 14,7 C 15,3 km/h
01.09.2010 21:00 14,3 C 70 % 1014,9 hPa 0,0 l/m 3,1 km/h W-NW 9,0 C 14,3 C 14,9 km/h
01.09.2010 22:00 14,0 C 73 % 1015,1 hPa 0,0 l/m 3,2 km/h SO 9,2 C 14,0 C 16,1 km/h
01.09.2010 23:00 14,1 C 73 % 1015,2 hPa 0,0 l/m 4,6 km/h NW 9,3 C 14,1 C 24,1 km/h
02.09.2010 00:00 14,1 C 74 % 1015,4 hPa 0,0 l/m 3,2 km/h NW 9,5 C 14,1 C 15,7 km/h
02.09.2010 01:00 14,0 C 74 % 1015,2 hPa 0,0 l/m 3,9 km/h NW 9,4 C 14,0 C 21,3 km/h
02.09.2010 02:00 14,0 C 75 % 1015,1 hPa 0,0 l/m 3,2 km/h S-SW 9,5 C 14,0 C 12,5 km/h
02.09.2010 03:00 13,9 C 75 % 1015,1 hPa 0,0 l/m 2,9 km/h NW 9,5 C 13,9 C 14,1 km/h
02.09.2010 04:00 13,8 C 76 % 1015,0 hPa 0,0 l/m 3,3 km/h NW 9,6 C 13,8 C 15,3 km/h
02.09.2010 05:00 13,8 C 75 % 1015,0 hPa 0,0 l/m 3,6 km/h W 9,4 C 13,8 C 16,9 km/h
02.09.2010 06:00 13,4 C 76 % 1015,3 hPa 0,0 l/m 3,8 km/h NW 9,2 C 13,4 C 13,7 km/h
02.09.2010 07:00 13,3 C 76 % 1015,6 hPa 0,0 l/m 4,0 km/h S 9,2 C 13,3 C 12,9 km/h
02.09.2010 08:00 13,9 C 74 % 1015,9 hPa 0,0 l/m 4,4 km/h NW 9,4 C 13,9 C 14,9 km/h
02.09.2010 09:00 14,6 C 73 % 1016,3 hPa 0,0 l/m 5,4 km/h NW 9,9 C 14,6 C 18,1 km/h
02.09.2010 10:00 15,6 C 71 % 1016,7 hPa 0,0 l/m 5,4 km/h S-SW 10,4 C 15,5 C 18,9 km/h
02.09.2010 11:00 17,3 C 66 % 1016,5 hPa 0,0 l/m 5,0 km/h NW 10,9 C 17,3 C 16,1 km/h
02.09.2010 12:00 18,4 C 61 % 1016,5 hPa 0,0 l/m 6,8 km/h NW 10,7 C 18,1 C 21,3 km/h
02.09.2010 13:00 19,5 C 58 % 1016,3 hPa 0,0 l/m 5,4 km/h NW 11,1 C 19,5 C 17,7 km/h
02.09.2010 14:00 19,0 C 58 % 1016,0 hPa 0,0 l/m 5,3 km/h NW 10,5 C 19,0 C 16,1 km/h
02.09.2010 15:00 18,5 C 59 % 1016,0 hPa 0,0 l/m 4,1 km/h W 10,2 C 18,5 C 18,1 km/h
02.09.2010 16:00 18,7 C 58 % 1016,0 hPa 0,0 l/m 2,5 km/h SW 10,1 C 18,7 C 10,1 km/h
02.09.2010 17:00 17,5 C 61 % 1016,1 hPa 0,0 l/m 1,0 km/h NW 9,8 C 17,5 C 4,8 km/h
02.09.2010 18:00 16,8 C 65 % 1015,9 hPa 0,0 l/m 0,2 km/h N 10,1 C 16,8 C 1,2 km/h
02.09.2010 19:00 16,3 C 69 % 1016,2 hPa 0,0 l/m 0,0 km/h N 10,5 C 16,3 C 0,4 km/h
02.09.2010 20:00 15,5 C 74 % 1016,7 hPa 0,0 l/m 0,0 km/h N 10,8 C 15,5 C 0,0 km/h
02.09.2010 21:00 14,9 C 77 % 1016,9 hPa 0,0 l/m 0,0 km/h N 10,8 C 14,9 C 0,4 km/h
02.09.2010 22:00 14,7 C 77 % 1017,1 hPa 0,0 l/m 0,2 km/h N 10,7 C 14,7 C 1,2 km/h
02.09.2010 23:00 14,5 C 78 % 1017,1 hPa 0,0 l/m 0,4 km/h N 10,7 C 14,5 C 2,8 km/h
03.09.2010 00:00 14,4 C 78 % 1017,2 hPa 0,0 l/m 0,1 km/h N 10,6 C 14,4 C 2,0 km/h
03.09.2010 01:00 14,4 C 78 % 1017,1 hPa 0,0 l/m 0,0 km/h N 10,6 C 14,4 C 0,8 km/h
03.09.2010 02:00 14,2 C 79 % 1017,2 hPa 0,0 l/m 0,0 km/h N 10,6 C 14,2 C 0,8 km/h
03.09.2010 03:00 13,9 C 80 % 1017,3 hPa 0,0 l/m 0,0 km/h N 10,5 C 13,9 C 0,0 km/h
03.09.2010 04:00 13,6 C 82 % 1017,5 hPa 0,0 l/m 0,0 km/h N 10,5 C 13,6 C 0,0 km/h
03.09.2010 05:00 13,4 C 83 % 1017,7 hPa 0,0 l/m 0,0 km/h N 10,5 C 13,4 C 0,0 km/h
03.09.2010 06:00 13,4 C 84 % 1018,3 hPa 0,0 l/m 0,0 km/h N 10,7 C 13,4 C 0,0 km/h
03.09.2010 07:00 13,5 C 84 % 1018,8 hPa 0,0 l/m 0,0 km/h N 10,9 C 13,5 C 0,8 km/h
03.09.2010 08:00 13,8 C 84 % 1019,2 hPa 0,0 l/m 0,0 km/h N 11,1 C 13,8 C 0,0 km/h
03.09.2010 09:00 14,3 C 81 % 1019,5 hPa 0,0 l/m 0,7 km/h W 11,1 C 14,3 C 4,4 km/h
03.09.2010 10:00 15,6 C 74 % 1019,6 hPa 0,0 l/m 2,1 km/h N-NW 11,0 C 15,6 C 6,8 km/h
03.09.2010 11:00 17,0 C 69 % 1019,6 hPa 0,0 l/m 1,8 km/h NW 11,3 C 17,0 C 7,2 km/h
03.09.2010 12:00 18,8 C 62 % 1019,5 hPa 0,0 l/m 0,9 km/h N-NW 11,3 C 18,8 C 5,2 km/h
03.09.2010 13:00 18,3 C 64 % 1019,4 hPa 0,0 l/m 0,0 km/h N 11,2 C 18,3 C 1,6 km/h
03.09.2010 14:00 20,3 C 57 % 1019,1 hPa 0,0 l/m 0,6 km/h N 11,4 C 20,3 C 4,8 km/h
03.09.2010 15:00 19,5 C 59 % 1019,0 hPa 0,0 l/m 1,4 km/h N-NW 11,3 C 19,5 C 5,6 km/h
03.09.2010 16:00 18,9 C 63 % 1018,9 hPa 0,0 l/m 0,5 km/h N 11,7 C 18,9 C 3,6 km/h
03.09.2010 17:00 18,8 C 63 % 1018,8 hPa 0,0 l/m 0,2 km/h N 11,5 C 18,8 C 2,0 km/h
03.09.2010 18:00 18,0 C 65 % 1018,8 hPa 0,0 l/m 0,0 km/h N 11,3 C 18,0 C 0,4 km/h
03.09.2010 19:00 17,2 C 69 % 1018,9 hPa 0,0 l/m 0,0 km/h N 11,4 C 17,2 C 0,0 km/h
03.09.2010 20:00 16,2 C 74 % 1019,3 hPa 0,0 l/m 0,0 km/h N 11,5 C 16,2 C 0,0 km/h
03.09.2010 21:00 15,4 C 78 % 1019,2 hPa 0,0 l/m 0,0 km/h N 11,7 C 15,4 C 0,0 km/h
03.09.2010 22:00 14,9 C 81 % 1019,3 hPa 0,0 l/m 0,0 km/h N 11,6 C 14,9 C 0,0 km/h
03.09.2010 23:00 14,3 C 83 % 1018,9 hPa 0,0 l/m 0,0 km/h N 11,4 C 14,3 C 0,0 km/h
04.09.2010 00:00 13,9 C 84 % 1018,7 hPa 0,0 l/m 0,0 km/h N 11,2 C 13,9 C 0,0 km/h
04.09.2010 01:00 13,7 C 85 % 1018,2 hPa 0,0 l/m 0,0 km/h N 11,2 C 13,7 C 0,0 km/h
04.09.2010 02:00 13,6 C 86 % 1017,7 hPa 0,0 l/m 0,0 km/h N 11,3 C 13,6 C 0,8 km/h
04.09.2010 03:00 13,4 C 86 % 1017,4 hPa 0,0 l/m 0,0 km/h N 11,1 C 13,4 C 0,0 km/h
04.09.2010 04:00 13,3 C 87 % 1017,1 hPa 0,0 l/m 0,0 km/h N 11,1 C 13,3 C 0,0 km/h
04.09.2010 05:00 13,1 C 87 % 1016,8 hPa 0,0 l/m 0,0 km/h N 11,0 C 13,1 C 0,0 km/h
04.09.2010 06:00 12,4 C 87 % 1016,7 hPa 0,0 l/m 0,0 km/h N 10,2 C 12,4 C 0,0 km/h
04.09.2010 07:00 12,3 C 87 % 1017,0 hPa 0,0 l/m 0,0 km/h N 10,2 C 12,3 C 0,4 km/h
04.09.2010 08:00 13,4 C 87 % 1017,2 hPa 0,0 l/m 0,1 km/h N 11,3 C 13,4 C 2,0 km/h
04.09.2010 09:00 14,1 C 87 % 1017,3 hPa 0,0 l/m 0,1 km/h N 12,0 C 14,1 C 2,4 km/h
04.09.2010 10:00 14,8 C 86 % 1017,5 hPa 0,0 l/m 0,1 km/h N 12,5 C 14,8 C 1,6 km/h
04.09.2010 11:00 15,9 C 81 % 1017,4 hPa 0,0 l/m 2,2 km/h N-NW 12,6 C 15,9 C 7,6 km/h
04.09.2010 12:00 17,8 C 73 % 1017,1 hPa 0,0 l/m 4,6 km/h N-NW 12,8 C 17,8 C 16,1 km/h
04.09.2010 13:00 17,4 C 70 % 1017,4 hPa 0,0 l/m 5,1 km/h N-NO 11,7 C 17,4 C 13,7 km/h
04.09.2010 14:00 16,3 C 70 % 1017,3 hPa 0,0 l/m 3,2 km/h N-NO 10,9 C 16,3 C 8,9 km/h
04.09.2010 15:00 17,3 C 66 % 1016,8 hPa 0,0 l/m 2,3 km/h NO 10,9 C 17,3 C 7,6 km/h
04.09.2010 16:00 18,0 C 62 % 1016,8 hPa 0,0 l/m 2,8 km/h N-NW 10,6 C 18,0 C 8,4 km/h
04.09.2010 17:00 17,0 C 64 % 1017,5 hPa 0,0 l/m 3,3 km/h N-NW 10,1 C 17,0 C 8,0 km/h
04.09.2010 18:00 16,1 C 68 % 1017,9 hPa 0,0 l/m 1,3 km/h N-NW 10,2 C 16,1 C 5,2 km/h
04.09.2010 19:00 15,3 C 73 % 1018,2 hPa 0,0 l/m 0,1 km/h N 10,3 C 15,3 C 1,6 km/h
04.09.2010 20:00 14,4 C 76 % 1019,1 hPa 0,0 l/m 0,0 km/h N 10,2 C 14,4 C 0,8 km/h
04.09.2010 21:00 14,1 C 78 % 1019,4 hPa 0,0 l/m 0,0 km/h N 10,4 C 14,1 C 0,8 km/h
04.09.2010 22:00 13,5 C 81 % 1019,6 hPa 0,0 l/m 0,0 km/h N 10,3 C 13,5 C 0,8 km/h
04.09.2010 23:00 12,6 C 81 % 1019,7 hPa 0,0 l/m 0,0 km/h N 9,5 C 12,6 C 1,2 km/h
05.09.2010 00:00 12,5 C 85 % 1019,7 hPa 0,0 l/m 1,1 km/h N-NO 10,0 C 12,5 C 5,6 km/h
05.09.2010 01:00 12,3 C 86 % 1020,0 hPa 0,0 l/m 1,7 km/h N-NW 10,0 C 12,3 C 6,0 km/h
05.09.2010 02:00 12,0 C 86 % 1019,7 hPa 0,0 l/m 2,6 km/h NW 9,7 C 12,0 C 6,4 km/h
05.09.2010 03:00 11,5 C 86 % 1019,8 hPa 0,0 l/m 1,6 km/h N 9,1 C 11,5 C 6,8 km/h
05.09.2010 04:00 10,8 C 86 % 1020,3 hPa 0,0 l/m 0,5 km/h N 8,5 C 10,8 C 2,4 km/h
05.09.2010 05:00 9,9 C 86 % 1020,6 hPa 0,0 l/m 0,1 km/h N 7,6 C 9,9 C 1,6 km/h
05.09.2010 06:00 9,5 C 87 % 1021,0 hPa 0,0 l/m 1,0 km/h N-NW 7,4 C 9,5 C 3,2 km/h
05.09.2010 07:00 9,7 C 87 % 1021,3 hPa 0,0 l/m 1,6 km/h N-NW 7,7 C 9,7 C 5,2 km/h
05.09.2010 08:00 10,7 C 86 % 1021,4 hPa 0,0 l/m 3,6 km/h NW 8,5 C 10,7 C 10,9 km/h
05.09.2010 09:00 11,6 C 81 % 1021,5 hPa 0,0 l/m 3,9 km/h N-NW 8,5 C 11,6 C 10,1 km/h
05.09.2010 10:00 12,8 C 73 % 1021,8 hPa 0,0 l/m 4,5 km/h N-NO 8,1 C 12,8 C 12,1 km/h
05.09.2010 11:00 14,3 C 68 % 1022,0 hPa 0,0 l/m 4,3 km/h NO 8,4 C 14,3 C 12,1 km/h
05.09.2010 12:00 15,6 C 61 % 1021,8 hPa 0,0 l/m 4,4 km/h N 8,2 C 15,6 C 14,5 km/h
05.09.2010 13:00 14,9 C 61 % 1021,9 hPa 0,0 l/m 5,4 km/h NO 7,4 C 14,9 C 14,1 km/h
05.09.2010 14:00 14,7 C 61 % 1021,9 hPa 0,0 l/m 3,9 km/h N-NO 7,3 C 14,7 C 10,5 km/h
05.09.2010 15:00 15,1 C 62 % 1021,7 hPa 0,0 l/m 3,8 km/h N-NW 7,8 C 15,1 C 10,5 km/h
05.09.2010 16:00 16,7 C 56 % 1021,5 hPa 0,0 l/m 3,5 km/h N-NW 7,7 C 16,7 C 8,9 km/h
05.09.2010 17:00 16,9 C 55 % 1021,2 hPa 0,0 l/m 2,6 km/h N-NO 7,8 C 16,9 C 8,4 km/h
05.09.2010 18:00 15,9 C 58 % 1021,1 hPa 0,0 l/m 2,8 km/h NW 7,6 C 15,9 C 8,9 km/h
05.09.2010 19:00 14,6 C 65 % 1021,3 hPa 0,0 l/m 0,6 km/h N 8,0 C 14,6 C 3,2 km/h
05.09.2010 20:00 12,8 C 70 % 1021,9 hPa 0,0 l/m 0,0 km/h N 7,5 C 12,8 C 0,4 km/h
05.09.2010 21:00 11,0 C 76 % 1022,0 hPa 0,0 l/m 0,0 km/h N 6,9 C 11,0 C 1,6 km/h
05.09.2010 22:00 9,9 C 81 % 1021,9 hPa 0,0 l/m 0,1 km/h N 6,7 C 9,9 C 0,8 km/h
05.09.2010 23:00 9,9 C 81 % 1021,9 hPa 0,0 l/m 0,1 km/h N 6,9 C 9,9 C 1,2 km/h
Min-Datum _ 05.09.10 01.09.10 31.08.10 - 30.08.10 - 31.08.10 31.08.10 30.08.10
_ Min-Zeit 06:15 15:15 14:45 - 00:00 - 02:00 23:15 01:15
Minimum _ 9,4 C 48 % 1008,9 hPa - 0,0 km/h - 5,8 C 8,8 C 0,0 km/h
Max-Datum _ 03.09.10 31.08.10 05.09.10 31.08.10 31.08.10 - 04.09.10 03.09.10 01.09.10
_ Max-Zeit 14:30 13:15 20:30 12:30 23:15 - 12:30 14:30 00:15
Maximum _ 20,7 C 88 % 1022,1 hPa 4,4 l/m 15,3 km/h
W-NW
- 13,7 C 20,7 C 41,8 km/h
N-NW
Durchschnitt _ 13,9 C 75 % 1015,3 hPa #34,3 l/m 3,2 km/h NW 9,3 C 13,6 C 11,0 km/h